createdAt,value
2023-01-12T00:00:19.395Z,7.62
2023-01-12T00:03:22.051Z,7.70
2023-01-12T00:06:25.087Z,7.71
2023-01-12T00:09:29.615Z,7.75
2023-01-12T00:12:32.182Z,7.72
2023-01-12T00:15:59.190Z,7.84
2023-01-12T00:19:02.603Z,7.97
2023-01-12T00:22:09.443Z,7.87
2023-01-12T00:25:13.380Z,7.99
2023-01-12T00:28:15.989Z,7.93
2023-01-12T00:31:18.617Z,7.96
2023-01-12T00:34:21.317Z,7.90
2023-01-12T00:40:47.612Z,8.03
2023-01-12T00:44:07.881Z,8.02
2023-01-12T00:47:11.080Z,8.04
2023-01-12T00:50:13.778Z,7.94
2023-01-12T00:53:16.806Z,8.07
2023-01-12T00:56:20.746Z,7.94
2023-01-12T00:59:23.386Z,7.89
2023-01-12T01:02:26.165Z,8.04
2023-01-12T01:05:28.773Z,8.01
2023-01-12T01:08:31.490Z,7.97
2023-01-12T01:11:36.239Z,7.92
2023-01-12T01:14:38.865Z,7.89
2023-01-12T01:17:41.530Z,7.95
2023-01-12T01:20:47.652Z,8.07
2023-01-12T01:23:50.234Z,8.19
2023-01-12T01:26:54.179Z,8.01
2023-01-12T01:29:56.758Z,8.03
2023-01-12T01:32:59.395Z,8.00
2023-01-12T01:36:02.096Z,8.11
2023-01-12T01:39:05.233Z,8.11
2023-01-12T01:42:27.661Z,8.28
2023-01-12T01:45:30.251Z,8.18
2023-01-12T01:48:37.662Z,8.34
2023-01-12T01:51:40.600Z,8.21
2023-01-12T01:54:49.264Z,8.22
2023-01-12T01:57:56.545Z,8.26
2023-01-12T02:00:59.648Z,8.24
2023-01-12T02:04:03.419Z,8.25
2023-01-12T02:07:08.049Z,8.25
2023-01-12T02:10:11.712Z,8.29
2023-01-12T02:13:33.849Z,8.20
2023-01-12T02:16:47.082Z,8.20
2023-01-12T02:20:36.235Z,8.36
2023-01-12T02:24:16.131Z,8.26
2023-01-12T02:27:31.610Z,8.36
2023-01-12T02:31:12.737Z,8.34
2023-01-12T02:34:31.311Z,8.28
2023-01-12T02:37:43.063Z,8.22
2023-01-12T02:40:53.665Z,8.37
2023-01-12T02:43:56.443Z,8.33
2023-01-12T02:47:02.506Z,8.40
2023-01-12T02:50:10.418Z,8.25
2023-01-12T02:53:18.903Z,8.31
2023-01-12T02:56:25.866Z,8.34
2023-01-12T02:59:31.414Z,8.25
2023-01-12T03:02:36.077Z,8.27
2023-01-12T03:05:41.228Z,8.17
2023-01-12T03:08:46.657Z,8.23
2023-01-12T03:11:54.063Z,8.37
2023-01-12T03:15:01.891Z,8.38
2023-01-12T03:18:10.038Z,8.22
2023-01-12T03:21:17.358Z,8.41
2023-01-12T03:24:25.820Z,8.26
2023-01-12T03:27:32.040Z,8.32
2023-01-12T03:30:38.562Z,8.40
2023-01-12T03:33:44.576Z,8.16
2023-01-12T03:36:53.599Z,8.07
2023-01-12T03:40:01.724Z,8.14
2023-01-12T03:43:07.986Z,8.05
2023-01-12T03:46:17.950Z,8.27
2023-01-12T03:49:27.897Z,8.24
2023-01-12T03:52:32.289Z,8.18
2023-01-12T03:55:39.391Z,8.36
2023-01-12T03:58:42.631Z,8.24
2023-01-12T04:01:45.398Z,8.18
2023-01-12T04:04:49.416Z,8.11
2023-01-12T04:07:51.995Z,8.28
2023-01-12T04:10:54.585Z,8.31
2023-01-12T04:13:56.183Z,8.23
2023-01-12T04:16:59.404Z,8.21
2023-01-12T04:20:04.462Z,8.47
2023-01-12T04:23:07.125Z,8.40
2023-01-12T04:26:09.737Z,8.16
2023-01-12T04:29:12.309Z,8.20
2023-01-12T04:32:14.921Z,8.25
2023-01-12T04:35:18.957Z,8.27
2023-01-12T04:38:21.759Z,8.41
2023-01-12T04:41:24.355Z,8.47
2023-01-12T04:44:26.913Z,8.53
2023-01-12T04:47:29.481Z,8.59
2023-01-12T04:50:33.468Z,8.61
2023-01-12T04:53:36.160Z,8.56
2023-01-12T04:56:39.023Z,8.32
2023-01-12T04:59:41.828Z,8.45
2023-01-12T05:02:44.390Z,8.51
2023-01-12T05:05:48.337Z,8.40
2023-01-12T05:09:08.873Z,8.58
2023-01-12T05:12:11.520Z,8.47
2023-01-12T05:15:14.075Z,8.65
2023-01-12T05:18:16.753Z,8.39
2023-01-12T05:21:22.162Z,8.52
2023-01-12T05:24:24.758Z,8.47
2023-01-12T05:27:27.372Z,8.73
2023-01-12T05:30:31.900Z,8.66
2023-01-12T05:33:35.382Z,8.72
2023-01-12T05:36:39.327Z,8.65
2023-01-12T05:39:41.936Z,8.52
2023-01-12T05:43:02.178Z,8.61
2023-01-12T05:46:06.077Z,8.52
2023-01-12T05:49:10.951Z,8.50
2023-01-12T05:52:14.875Z,8.28
2023-01-12T05:55:17.574Z,8.38
2023-01-12T05:58:20.178Z,8.25
2023-01-12T06:01:23.402Z,8.31
2023-01-12T06:04:26.228Z,8.36
2023-01-12T06:07:30.153Z,8.28
2023-01-12T06:10:34.293Z,8.31
2023-01-12T06:13:59.609Z,8.33
2023-01-12T06:17:02.236Z,8.24
2023-01-12T06:20:05.704Z,8.53
2023-01-12T06:23:09.649Z,8.43
2023-01-12T06:26:12.244Z,8.04
2023-01-12T06:29:14.810Z,8.22
2023-01-12T06:32:17.401Z,8.15
2023-01-12T06:35:20.172Z,8.22
2023-01-12T06:38:26.558Z,8.18
2023-01-12T06:41:46.895Z,8.17
2023-01-12T06:44:49.482Z,8.27
2023-01-12T06:47:52.166Z,8.30
2023-01-12T06:50:56.733Z,8.16
2023-01-12T06:54:01.382Z,8.23
2023-01-12T06:57:04.057Z,8.40
2023-01-12T07:00:07.714Z,8.57
2023-01-12T07:03:16.576Z,8.48
2023-01-12T07:06:19.199Z,8.34
2023-01-12T07:09:23.163Z,8.28
2023-01-12T07:12:25.746Z,8.29
2023-01-12T07:15:29.090Z,8.19
2023-01-12T07:18:32.268Z,8.26
2023-01-12T07:21:34.838Z,8.55
2023-01-12T07:24:38.788Z,8.44
2023-01-12T07:27:48.655Z,8.46
2023-01-12T07:30:51.258Z,8.53
2023-01-12T07:33:54.402Z,8.51
2023-01-12T07:36:56.984Z,8.38
2023-01-12T07:40:00.951Z,8.40
2023-01-12T07:43:05.689Z,8.50
2023-01-12T07:46:08.314Z,8.47
2023-01-12T07:49:11.002Z,8.35
2023-01-12T07:52:14.783Z,8.40
2023-01-12T07:55:19.699Z,8.39
2023-01-12T07:58:22.309Z,8.48
2023-01-12T08:01:25.229Z,8.39
2023-01-12T08:04:27.880Z,8.45
2023-01-12T08:07:32.904Z,8.40
2023-01-12T08:10:37.141Z,8.50
2023-01-12T08:13:40.592Z,8.39
2023-01-12T08:16:47.067Z,8.39
2023-01-12T08:19:54.145Z,8.38
2023-01-12T08:23:01.226Z,8.47
2023-01-12T08:26:11.582Z,8.25
2023-01-12T08:29:18.978Z,8.25
2023-01-12T08:32:22.063Z,8.19
2023-01-12T08:35:28.578Z,8.39
2023-01-12T08:38:31.639Z,8.32
2023-01-12T08:41:37.442Z,8.18
2023-01-12T08:44:40.081Z,8.36
2023-01-12T08:47:44.377Z,8.19
2023-01-12T08:50:46.952Z,8.21
2023-01-12T08:53:49.973Z,8.26
2023-01-12T08:56:54.756Z,8.28
2023-01-12T08:59:57.786Z,8.36
2023-01-12T09:03:02.075Z,8.21
2023-01-12T09:06:12.708Z,8.20
2023-01-12T09:09:18.926Z,8.18
2023-01-12T09:12:24.457Z,8.29
2023-01-12T09:15:27.346Z,8.24
2023-01-12T09:18:29.922Z,8.22
2023-01-12T09:21:33.360Z,8.21
2023-01-12T09:24:35.942Z,8.17
2023-01-12T09:27:39.893Z,8.21
2023-01-12T09:30:42.462Z,8.17
2023-01-12T09:33:45.134Z,8.12
2023-01-12T09:36:48.807Z,8.29
2023-01-12T09:39:51.388Z,8.21
2023-01-12T09:43:12.693Z,8.26
2023-01-12T09:46:38.488Z,8.23
2023-01-12T09:49:46.896Z,8.27
2023-01-12T09:52:55.672Z,8.34
2023-01-12T09:56:05.643Z,8.34
2023-01-12T09:59:32.031Z,8.39
2023-01-12T10:02:36.283Z,8.38
2023-01-12T10:05:45.935Z,8.52
2023-01-12T10:08:51.178Z,8.45
2023-01-12T10:12:02.967Z,8.45
2023-01-12T10:15:24.763Z,8.61
2023-01-12T10:18:34.261Z,8.45
2023-01-12T10:21:36.904Z,8.59
2023-01-12T10:24:42.772Z,8.61
2023-01-12T10:27:47.180Z,8.60
2023-01-12T10:30:51.282Z,8.67
2023-01-12T10:34:06.846Z,8.67
2023-01-12T10:37:12.495Z,8.72
2023-01-12T10:40:24.792Z,8.73
2023-01-12T10:43:32.266Z,8.89
2023-01-12T10:46:36.700Z,8.88
2023-01-12T10:49:39.283Z,8.80
2023-01-12T10:52:42.278Z,8.94
2023-01-12T10:55:47.599Z,9.01
2023-01-12T10:58:55.863Z,8.88
2023-01-12T11:02:16.825Z,8.94
2023-01-12T11:05:33.968Z,9.01
2023-01-12T11:08:36.592Z,8.96
2023-01-12T11:11:39.198Z,9.01
2023-01-12T11:14:41.873Z,9.11
2023-01-12T11:18:03.378Z,9.13
2023-01-12T11:21:10.011Z,9.28
2023-01-12T11:24:24.189Z,9.22
2023-01-12T11:27:32.721Z,9.27
2023-01-12T11:30:41.925Z,9.23
2023-01-12T11:33:50.552Z,9.25
2023-01-12T11:36:56.457Z,9.39
2023-01-12T11:40:07.000Z,9.37
2023-01-12T11:43:46.785Z,9.35
2023-01-12T11:46:56.002Z,9.29
2023-01-12T11:50:06.210Z,9.31
2023-01-12T11:53:21.037Z,9.32
2023-01-12T11:56:52.919Z,9.31
2023-01-12T12:00:13.161Z,9.46
2023-01-12T12:03:32.142Z,9.48
2023-01-12T12:06:58.612Z,9.54
2023-01-12T12:10:22.383Z,9.68
2023-01-12T12:13:34.473Z,9.65
2023-01-12T12:16:44.476Z,9.70
2023-01-12T12:19:57.093Z,9.71
2023-01-12T12:23:20.083Z,9.68
2023-01-12T12:26:27.904Z,9.74
2023-01-12T12:29:41.207Z,9.76
2023-01-12T12:32:52.174Z,9.78
2023-01-12T12:36:08.015Z,9.80
2023-01-12T12:39:43.434Z,9.87
2023-01-12T12:43:17.906Z,9.92
2023-01-12T12:46:30.309Z,10.02
2023-01-12T12:49:35.157Z,9.97
2023-01-12T12:52:37.898Z,10.01
2023-01-12T12:55:42.963Z,10.06
2023-01-12T12:58:47.340Z,10.02
2023-01-12T13:01:57.149Z,9.93
2023-01-12T13:05:04.973Z,9.98
2023-01-12T13:08:18.689Z,10.07
2023-01-12T13:11:50.272Z,10.12
2023-01-12T13:15:22.577Z,10.13
2023-01-12T13:19:04.052Z,10.15
2023-01-12T13:22:28.327Z,10.20
2023-01-12T13:25:53.668Z,10.20
2023-01-12T13:29:33.501Z,10.17
2023-01-12T13:32:43.518Z,10.22
2023-01-12T13:36:10.230Z,10.25
2023-01-12T13:39:16.059Z,10.29
2023-01-12T13:42:39.564Z,10.38
2023-01-12T13:45:49.099Z,10.40
2023-01-12T13:48:55.303Z,10.41
2023-01-12T13:52:00.406Z,10.46
2023-01-12T13:55:03.244Z,10.50
2023-01-12T13:58:16.616Z,10.56
2023-01-12T14:01:25.879Z,10.59
2023-01-12T14:04:47.080Z,10.61
2023-01-12T14:08:00.524Z,10.63
2023-01-12T14:11:16.917Z,10.69
2023-01-12T14:14:51.875Z,10.69
2023-01-12T14:18:03.832Z,10.57
2023-01-12T14:21:21.964Z,10.59
2023-01-12T14:24:25.816Z,10.55
2023-01-12T14:27:28.549Z,10.64
2023-01-12T14:30:32.585Z,10.72
2023-01-12T14:33:38.549Z,10.77
2023-01-12T14:36:46.269Z,10.81
2023-01-12T14:39:49.098Z,10.70
2023-01-12T14:43:09.808Z,10.64
2023-01-12T14:46:28.745Z,10.65
2023-01-12T14:49:32.913Z,10.69
2023-01-12T14:52:37.007Z,10.66
2023-01-12T14:55:41.338Z,10.73
2023-01-12T14:58:45.415Z,10.65
2023-01-12T15:01:48.086Z,10.59
2023-01-12T15:04:53.548Z,10.62
2023-01-12T15:08:00.488Z,10.62
2023-01-12T15:11:08.359Z,10.62
2023-01-12T15:14:24.905Z,10.70
2023-01-12T15:17:45.246Z,10.58
2023-01-12T15:21:05.072Z,10.64
2023-01-12T15:24:39.521Z,10.71
2023-01-12T15:27:42.129Z,10.72
2023-01-12T15:30:44.764Z,10.70
2023-01-12T15:33:47.456Z,10.72
2023-01-12T15:36:50.005Z,10.82
2023-01-12T15:39:54.098Z,10.82
2023-01-12T15:42:58.571Z,10.79
2023-01-12T15:46:01.156Z,10.81
2023-01-12T15:49:03.731Z,10.78
2023-01-12T15:52:06.372Z,10.86
2023-01-12T15:55:17.179Z,10.85
2023-01-12T15:58:20.229Z,10.83
2023-01-12T16:01:22.942Z,10.98
2023-01-12T16:04:44.049Z,10.94
2023-01-12T16:07:48.659Z,10.75
2023-01-12T16:11:13.218Z,10.78
2023-01-12T16:14:16.388Z,10.78
2023-01-12T16:17:19.309Z,10.75
2023-01-12T16:20:22.151Z,10.80
2023-01-12T16:23:24.790Z,10.80
2023-01-12T16:26:29.873Z,10.90
2023-01-12T16:29:32.698Z,10.70
2023-01-12T16:32:35.277Z,10.73
2023-01-12T16:35:37.820Z,10.57
2023-01-12T16:38:40.493Z,10.62
2023-01-12T16:41:44.430Z,10.80
2023-01-12T16:44:50.211Z,10.87
2023-01-12T16:47:57.321Z,10.88
2023-01-12T16:51:00.228Z,10.90
2023-01-12T16:54:04.605Z,10.88
2023-01-12T16:57:08.532Z,10.71
2023-01-12T17:00:12.492Z,10.89
2023-01-12T17:03:15.327Z,10.78
2023-01-12T17:06:21.175Z,10.65
2023-01-12T17:09:23.940Z,10.41
2023-01-12T17:12:27.918Z,10.47
2023-01-12T17:15:31.219Z,10.51
2023-01-12T17:18:34.169Z,10.46
2023-01-12T17:21:36.881Z,10.47
2023-01-12T17:24:40.625Z,10.37
2023-01-12T17:27:44.812Z,10.51
2023-01-12T17:30:47.715Z,10.61
2023-01-12T17:33:51.817Z,10.77
2023-01-12T17:36:54.429Z,10.89
2023-01-12T17:39:57.072Z,10.74
2023-01-12T17:43:02.677Z,10.76
2023-01-12T17:46:08.476Z,10.63
2023-01-12T17:49:11.897Z,10.75
2023-01-12T17:52:14.852Z,10.64
2023-01-12T17:55:17.670Z,10.50
2023-01-12T17:58:21.597Z,10.54
2023-01-12T18:01:27.082Z,10.54
2023-01-12T18:04:29.750Z,10.44
2023-01-12T18:07:32.817Z,10.43
2023-01-12T18:10:35.470Z,10.38
2023-01-12T18:13:41.442Z,10.60
2023-01-12T18:16:44.218Z,10.56
2023-01-12T18:19:48.320Z,10.49
2023-01-12T18:22:54.551Z,10.41
2023-01-12T18:25:57.197Z,10.47
2023-01-12T18:29:02.787Z,10.53
2023-01-12T18:32:05.748Z,10.48
2023-01-12T18:35:08.922Z,10.43
2023-01-12T18:38:11.537Z,10.25
2023-01-12T18:41:31.858Z,10.35
2023-01-12T18:44:37.440Z,10.44
2023-01-12T18:47:57.763Z,10.36
2023-01-12T18:51:29.355Z,10.37
2023-01-12T18:54:32.245Z,10.25
2023-01-12T18:57:36.632Z,10.37
2023-01-12T19:00:40.614Z,10.46
2023-01-12T19:03:43.188Z,10.56
2023-01-12T19:06:47.392Z,10.48
2023-01-12T19:09:50.011Z,10.39
2023-01-12T19:13:12.857Z,10.48
2023-01-12T19:16:34.165Z,10.38
2023-01-12T19:19:37.096Z,10.35
2023-01-12T19:23:08.916Z,10.37
2023-01-12T19:26:29.260Z,10.29
2023-01-12T19:29:31.828Z,10.34
2023-01-12T19:32:35.803Z,10.44
2023-01-12T19:35:40.057Z,10.48
2023-01-12T19:38:49.845Z,10.28
2023-01-12T19:42:13.096Z,10.32
2023-01-12T19:45:15.722Z,10.29
2023-01-12T19:48:21.394Z,10.36
2023-01-12T19:51:24.374Z,10.29
2023-01-12T19:54:27.045Z,10.29
2023-01-12T19:57:29.700Z,10.31
2023-01-12T20:00:32.276Z,10.39
2023-01-12T20:03:39.683Z,10.27
2023-01-12T20:06:42.289Z,10.31
2023-01-12T20:09:44.871Z,10.20
2023-01-12T20:12:47.872Z,10.34
2023-01-12T20:15:50.771Z,10.36
2023-01-12T20:18:57.188Z,10.40
2023-01-12T20:21:59.830Z,10.23
2023-01-12T20:25:02.789Z,10.31
2023-01-12T20:28:05.523Z,10.36
2023-01-12T20:31:13.137Z,10.44
2023-01-12T20:34:17.152Z,10.50
2023-01-12T20:37:19.781Z,10.37
2023-01-12T20:40:22.392Z,10.47
2023-01-12T20:43:24.955Z,10.45
2023-01-12T20:46:27.644Z,10.48
2023-01-12T20:49:31.606Z,10.46
2023-01-12T20:52:35.100Z,10.44
2023-01-12T20:55:42.783Z,10.40
2023-01-12T20:58:45.523Z,10.33
2023-01-12T21:01:48.182Z,10.26
2023-01-12T21:04:52.658Z,10.25
2023-01-12T21:08:07.088Z,10.29
2023-01-12T21:11:10.954Z,10.33
2023-01-12T21:14:13.612Z,10.33
2023-01-12T21:17:18.185Z,10.20
2023-01-12T21:20:22.217Z,10.30
2023-01-12T21:23:24.810Z,10.31
2023-01-12T21:26:27.398Z,10.25
2023-01-12T21:29:30.033Z,10.19
2023-01-12T21:32:32.759Z,10.16
2023-01-12T21:35:36.749Z,10.05
2023-01-12T21:38:39.578Z,10.14
2023-01-12T21:41:59.623Z,10.22
2023-01-12T21:45:02.191Z,10.24
2023-01-12T21:48:05.173Z,10.34
2023-01-12T21:51:11.512Z,10.33
2023-01-12T21:54:14.101Z,10.26
2023-01-12T21:57:16.758Z,10.26
2023-01-12T22:00:20.031Z,10.31
2023-01-12T22:03:24.329Z,10.30
2023-01-12T22:06:28.244Z,10.34
2023-01-12T22:09:30.860Z,10.31
2023-01-12T22:12:33.443Z,10.28
2023-01-12T22:15:36.238Z,10.30
2023-01-12T22:18:39.866Z,10.29
2023-01-12T22:21:44.120Z,10.41
2023-01-12T22:24:46.698Z,10.37
2023-01-12T22:27:49.265Z,10.38
2023-01-12T22:30:52.559Z,10.56
2023-01-12T22:34:02.519Z,10.37
2023-01-12T22:37:06.589Z,10.33
2023-01-12T22:40:11.780Z,10.29
2023-01-12T22:43:34.055Z,10.31
2023-01-12T22:46:36.851Z,10.24
2023-01-12T22:49:39.485Z,10.37
2023-01-12T22:52:43.419Z,10.34
2023-01-12T22:55:46.011Z,10.23
2023-01-12T22:58:49.494Z,10.23
2023-01-12T23:01:52.133Z,10.23
2023-01-12T23:04:54.785Z,10.24
2023-01-12T23:07:59.512Z,10.28
2023-01-12T23:11:06.705Z,10.30
2023-01-12T23:14:09.350Z,10.25
2023-01-12T23:17:12.714Z,10.28
2023-01-12T23:20:15.548Z,10.28
2023-01-12T23:23:19.529Z,10.28
2023-01-12T23:26:23.938Z,10.29
2023-01-12T23:29:26.565Z,10.29
2023-01-12T23:32:29.192Z,10.27
2023-01-12T23:35:35.703Z,10.46
2023-01-12T23:38:39.671Z,10.34
2023-01-12T23:41:42.260Z,10.33
2023-01-12T23:44:45.453Z,10.45
2023-01-12T23:47:48.069Z,10.31
2023-01-12T23:50:50.800Z,10.34
2023-01-12T23:53:54.818Z,10.32
2023-01-12T23:56:57.438Z,10.29
